sensor_id;sensor_type;location;lat;lon;timestamp;temperature;humidity
35027;DHT22;60696;51.426;6.934;2023-10-31T05:01:17;10.90;99.90
35027;DHT22;60696;51.426;6.934;2023-10-31T05:03:42;11.00;99.90
35027;DHT22;60696;51.426;6.934;2023-10-31T05:06:08;11.00;99.90
35027;DHT22;60696;51.426;6.934;2023-10-31T05:08:34;10.90;99.90
35027;DHT22;60696;51.426;6.934;2023-10-31T05:11:00;10.90;99.90
35027;DHT22;60696;51.426;6.934;2023-10-31T05:13:25;11.00;99.90
35027;DHT22;60696;51.426;6.934;2023-10-31T05:15:51;11.00;99.90
35027;DHT22;60696;51.426;6.934;2023-10-31T05:18:17;11.00;99.90
35027;DHT22;60696;51.426;6.934;2023-10-31T05:20:43;11.00;99.90
35027;DHT22;60696;51.426;6.934;2023-10-31T05:23:09;11.10;99.90
35027;DHT22;60696;51.426;6.934;2023-10-31T05:25:35;11.10;99.90
35027;DHT22;60696;51.426;6.934;2023-10-31T05:28:01;11.10;99.90
35027;DHT22;60696;51.426;6.934;2023-10-31T05:30:26;11.10;99.90
35027;DHT22;60696;51.426;6.934;2023-10-31T05:32:52;11.20;99.90
35027;DHT22;60696;51.426;6.934;2023-10-31T05:35:18;11.10;99.90
35027;DHT22;60696;51.426;6.934;2023-10-31T05:37:45;11.20;99.90
35027;DHT22;60696;51.426;6.934;2023-10-31T05:40:14;11.20;99.90
35027;DHT22;60696;51.426;6.934;2023-10-31T05:42:40;11.20;99.90
35027;DHT22;60696;51.426;6.934;2023-10-31T05:45:09;11.20;99.90
35027;DHT22;60696;51.426;6.934;2023-10-31T05:47:34;11.20;99.90
35027;DHT22;60696;51.426;6.934;2023-10-31T05:50:00;11.20;99.90
35027;DHT22;60696;51.426;6.934;2023-10-31T05:52:29;11.30;99.90
35027;DHT22;60696;51.426;6.934;2023-10-31T05:54:55;11.30;99.90
35027;DHT22;60696;51.426;6.934;2023-10-31T05:57:21;11.20;99.90
35027;DHT22;60696;51.426;6.934;2023-10-31T05:59:46;11.10;99.90
35027;DHT22;60696;51.426;6.934;2023-10-31T06:02:13;11.10;99.90
35027;DHT22;60696;51.426;6.934;2023-10-31T06:04:39;11.10;99.90
35027;DHT22;60696;51.426;6.934;2023-10-31T06:07:05;11.20;99.90
35027;DHT22;60696;51.426;6.934;2023-10-31T06:09:31;11.10;99.90
35027;DHT22;60696;51.426;6.934;2023-10-31T06:11:58;11.10;99.90
35027;DHT22;60696;51.426;6.934;2023-10-31T06:14:24;11.10;99.90
35027;DHT22;60696;51.426;6.934;2023-10-31T06:16:51;11.10;99.90
35027;DHT22;60696;51.426;6.934;2023-10-31T06:19:17;11.10;99.90
35027;DHT22;60696;51.426;6.934;2023-10-31T06:21:42;11.20;99.90
35027;DHT22;60696;51.426;6.934;2023-10-31T06:24:08;11.20;99.90
35027;DHT22;60696;51.426;6.934;2023-10-31T06:26:34;11.20;99.90
35027;DHT22;60696;51.426;6.934;2023-10-31T06:29:00;11.20;99.90
35027;DHT22;60696;51.426;6.934;2023-10-31T06:31:29;11.20;99.90
35027;DHT22;60696;51.426;6.934;2023-10-31T06:33:54;11.20;99.90
35027;DHT22;60696;51.426;6.934;2023-10-31T06:36:20;11.10;99.90
35027;DHT22;60696;51.426;6.934;2023-10-31T06:38:45;11.20;99.90
35027;DHT22;60696;51.426;6.934;2023-10-31T06:41:11;11.10;99.90
35027;DHT22;60696;51.426;6.934;2023-10-31T06:43:37;11.20;99.90
35027;DHT22;60696;51.426;6.934;2023-10-31T06:46:03;11.30;99.90
35027;DHT22;60696;51.426;6.934;2023-10-31T06:48:30;11.40;99.90
35027;DHT22;60696;51.426;6.934;2023-10-31T06:50:56;11.40;99.90
35027;DHT22;60696;51.426;6.934;2023-10-31T06:53:21;11.40;99.90
35027;DHT22;60696;51.426;6.934;2023-10-31T06:55:47;11.30;99.90
35027;DHT22;60696;51.426;6.934;2023-10-31T06:58:14;11.30;99.90
35027;DHT22;60696;51.426;6.934;2023-10-31T07:00:39;11.40;99.90
35027;DHT22;60696;51.426;6.934;2023-10-31T07:03:05;11.40;99.90
35027;DHT22;60696;51.426;6.934;2023-10-31T07:05:37;11.50;99.90
35027;DHT22;60696;51.426;6.934;2023-10-31T07:08:03;11.50;99.90
35027;DHT22;60696;51.426;6.934;2023-10-31T07:10:30;11.50;99.90
35027;DHT22;60696;51.426;6.934;2023-10-31T07:12:55;11.40;99.90
35027;DHT22;60696;51.426;6.934;2023-10-31T07:15:21;11.40;99.90
35027;DHT22;60696;51.426;6.934;2023-10-31T07:17:47;11.40;99.90
35027;DHT22;60696;51.426;6.934;2023-10-31T07:20:13;11.50;99.90
35027;DHT22;60696;51.426;6.934;2023-10-31T07:22:38;11.60;99.90
35027;DHT22;60696;51.426;6.934;2023-10-31T07:25:06;11.50;99.90
35027;DHT22;60696;51.426;6.934;2023-10-31T07:27:31;11.60;99.90
35027;DHT22;60696;51.426;6.934;2023-10-31T07:29:57;11.60;99.90
35027;DHT22;60696;51.426;6.934;2023-10-31T07:32:23;11.50;99.90
35027;DHT22;60696;51.426;6.934;2023-10-31T07:34:48;11.50;99.90
35027;DHT22;60696;51.426;6.934;2023-10-31T07:37:14;11.50;99.90
35027;DHT22;60696;51.426;6.934;2023-10-31T07:39:39;11.40;99.90
35027;DHT22;60696;51.426;6.934;2023-10-31T07:42:05;11.50;99.90
35027;DHT22;60696;51.426;6.934;2023-10-31T07:44:31;11.50;99.90
35027;DHT22;60696;51.426;6.934;2023-10-31T07:46:57;11.60;99.90
35027;DHT22;60696;51.426;6.934;2023-10-31T07:49:22;11.60;99.90
35027;DHT22;60696;51.426;6.934;2023-10-31T07:51:48;11.70;99.90
35027;DHT22;60696;51.426;6.934;2023-10-31T07:54:14;11.70;99.90
35027;DHT22;60696;51.426;6.934;2023-10-31T07:56:41;11.70;99.90
35027;DHT22;60696;51.426;6.934;2023-10-31T07:59:07;11.70;99.90
35027;DHT22;60696;51.426;6.934;2023-10-31T08:01:33;11.50;99.90
35027;DHT22;60696;51.426;6.934;2023-10-31T08:03:59;11.60;99.90
35027;DHT22;60696;51.426;6.934;2023-10-31T08:06:25;11.70;99.90
35027;DHT22;60696;51.426;6.934;2023-10-31T08:08:51;11.60;99.90
35027;DHT22;60696;51.426;6.934;2023-10-31T08:11:19;11.60;99.90
35027;DHT22;60696;51.426;6.934;2023-10-31T08:13:44;11.60;99.90
35027;DHT22;60696;51.426;6.934;2023-10-31T08:16:10;11.50;99.90
35027;DHT22;60696;51.426;6.934;2023-10-31T08:18:41;11.60;99.90
35027;DHT22;60696;51.426;6.934;2023-10-31T08:21:07;11.60;99.90
35027;DHT22;60696;51.426;6.934;2023-10-31T08:23:32;11.50;99.90
35027;DHT22;60696;51.426;6.934;2023-10-31T08:25:58;11.60;99.90
35027;DHT22;60696;51.426;6.934;2023-10-31T08:28:24;11.60;99.90
35027;DHT22;60696;51.426;6.934;2023-10-31T08:30:49;11.60;99.90
35027;DHT22;60696;51.426;6.934;2023-10-31T08:33:15;11.80;99.90
35027;DHT22;60696;51.426;6.934;2023-10-31T08:35:41;11.70;99.90
35027;DHT22;60696;51.426;6.934;2023-10-31T08:38:08;11.80;99.90
35027;DHT22;60696;51.426;6.934;2023-10-31T08:40:33;11.80;99.90
35027;DHT22;60696;51.426;6.934;2023-10-31T08:42:59;12.00;99.90
35027;DHT22;60696;51.426;6.934;2023-10-31T08:45:26;12.20;99.90
35027;DHT22;60696;51.426;6.934;2023-10-31T08:47:51;12.40;99.90
35027;DHT22;60696;51.426;6.934;2023-10-31T08:50:17;12.60;99.90
35027;DHT22;60696;51.426;6.934;2023-10-31T08:52:43;12.80;99.90
35027;DHT22;60696;51.426;6.934;2023-10-31T08:55:08;12.90;99.90
35027;DHT22;60696;51.426;6.934;2023-10-31T08:57:34;13.00;99.90
35027;DHT22;60696;51.426;6.934;2023-10-31T09:00:00;13.00;99.90
35027;DHT22;60696;51.426;6.934;2023-10-31T09:02:26;12.90;99.90
35027;DHT22;60696;51.426;6.934;2023-10-31T09:04:54;12.80;99.90
35027;DHT22;60696;51.426;6.934;2023-10-31T09:07:20;12.70;99.90
35027;DHT22;60696;51.426;6.934;2023-10-31T09:09:45;12.60;99.90
35027;DHT22;60696;51.426;6.934;2023-10-31T09:12:11;12.50;99.90
35027;DHT22;60696;51.426;6.934;2023-10-31T09:14:37;12.50;99.90
35027;DHT22;60696;51.426;6.934;2023-10-31T09:17:02;12.30;99.90
35027;DHT22;60696;51.426;6.934;2023-10-31T09:19:28;12.30;99.90
35027;DHT22;60696;51.426;6.934;2023-10-31T09:21:55;12.50;99.90
35027;DHT22;60696;51.426;6.934;2023-10-31T09:24:20;12.50;99.90
35027;DHT22;60696;51.426;6.934;2023-10-31T09:26:46;12.60;99.90
35027;DHT22;60696;51.426;6.934;2023-10-31T09:29:14;12.90;99.90
35027;DHT22;60696;51.426;6.934;2023-10-31T09:31:39;13.40;99.90
35027;DHT22;60696;51.426;6.934;2023-10-31T09:34:05;13.70;99.90
35027;DHT22;60696;51.426;6.934;2023-10-31T09:36:34;13.90;99.90
35027;DHT22;60696;51.426;6.934;2023-10-31T09:39:00;13.80;99.90
35027;DHT22;60696;51.426;6.934;2023-10-31T09:41:25;13.60;99.90
35027;DHT22;60696;51.426;6.934;2023-10-31T09:43:51;13.50;99.90
35027;DHT22;60696;51.426;6.934;2023-10-31T09:46:17;13.30;99.90
35027;DHT22;60696;51.426;6.934;2023-10-31T09:48:43;13.10;99.90
35027;DHT22;60696;51.426;6.934;2023-10-31T09:51:09;13.10;99.90
35027;DHT22;60696;51.426;6.934;2023-10-31T09:53:38;13.20;99.90
35027;DHT22;60696;51.426;6.934;2023-10-31T09:56:07;13.50;99.90
35027;DHT22;60696;51.426;6.934;2023-10-31T09:58:33;13.70;99.90
35027;DHT22;60696;51.426;6.934;2023-10-31T10:00:59;13.50;99.90
35027;DHT22;60696;51.426;6.934;2023-10-31T10:03:26;13.60;99.90
35027;DHT22;60696;51.426;6.934;2023-10-31T10:05:52;13.70;99.90
35027;DHT22;60696;51.426;6.934;2023-10-31T10:08:19;13.70;99.90
35027;DHT22;60696;51.426;6.934;2023-10-31T10:10:45;13.50;99.90
35027;DHT22;60696;51.426;6.934;2023-10-31T10:13:10;13.40;99.90
35027;DHT22;60696;51.426;6.934;2023-10-31T10:15:56;13.30;99.90
35027;DHT22;60696;51.426;6.934;2023-10-31T10:18:26;13.30;99.90
35027;DHT22;60696;51.426;6.934;2023-10-31T10:21:00;13.20;99.90
35027;DHT22;60696;51.426;6.934;2023-10-31T10:23:29;13.10;99.90
35027;DHT22;60696;51.426;6.934;2023-10-31T10:25:56;13.00;99.90
35027;DHT22;60696;51.426;6.934;2023-10-31T10:28:22;13.00;99.90
35027;DHT22;60696;51.426;6.934;2023-10-31T10:30:51;13.00;99.90
35027;DHT22;60696;51.426;6.934;2023-10-31T10:33:17;13.10;99.90
35027;DHT22;60696;51.426;6.934;2023-10-31T10:35:44;13.00;99.90
35027;DHT22;60696;51.426;6.934;2023-10-31T10:38:14;13.10;99.90
35027;DHT22;60696;51.426;6.934;2023-10-31T10:40:42;13.20;99.90
35027;DHT22;60696;51.426;6.934;2023-10-31T10:43:22;13.20;99.90
35027;DHT22;60696;51.426;6.934;2023-10-31T10:45:56;13.20;99.90
35027;DHT22;60696;51.426;6.934;2023-10-31T10:48:23;13.00;99.90
35027;DHT22;60696;51.426;6.934;2023-10-31T10:53:48;13.10;99.90
35027;DHT22;60696;51.426;6.934;2023-10-31T10:59:21;12.90;99.90
35027;DHT22;60696;51.426;6.934;2023-10-31T11:01:52;13.00;99.90
35027;DHT22;60696;51.426;6.934;2023-10-31T11:04:19;12.90;99.90
35027;DHT22;60696;51.426;6.934;2023-10-31T11:06:44;12.90;99.90
35027;DHT22;60696;51.426;6.934;2023-10-31T11:09:10;13.00;99.90
35027;DHT22;60696;51.426;6.934;2023-10-31T11:11:38;13.10;99.90
35027;DHT22;60696;51.426;6.934;2023-10-31T11:14:05;13.20;99.90
35027;DHT22;60696;51.426;6.934;2023-10-31T11:16:51;13.50;99.90
35027;DHT22;60696;51.426;6.934;2023-10-31T11:19:19;13.60;99.90
35027;DHT22;60696;51.426;6.934;2023-10-31T11:24:21;13.40;99.90
35027;DHT22;60696;51.426;6.934;2023-10-31T11:26:53;13.50;99.90
35027;DHT22;60696;51.426;6.934;2023-10-31T11:29:19;13.50;99.90
35027;DHT22;60696;51.426;6.934;2023-10-31T11:31:45;13.40;99.90
35027;DHT22;60696;51.426;6.934;2023-10-31T11:34:11;13.60;99.90
35027;DHT22;60696;51.426;6.934;2023-10-31T11:36:37;14.00;99.90
35027;DHT22;60696;51.426;6.934;2023-10-31T11:39:22;14.30;99.90
35027;DHT22;60696;51.426;6.934;2023-10-31T11:41:56;14.50;99.90
35027;DHT22;60696;51.426;6.934;2023-10-31T11:44:27;14.60;99.90
35027;DHT22;60696;51.426;6.934;2023-10-31T11:46:53;14.70;99.90
35027;DHT22;60696;51.426;6.934;2023-10-31T11:49:46;14.90;99.90
35027;DHT22;60696;51.426;6.934;2023-10-31T11:52:18;14.80;99.90
35027;DHT22;60696;51.426;6.934;2023-10-31T11:54:45;14.80;99.90
35027;DHT22;60696;51.426;6.934;2023-10-31T11:57:10;14.60;99.90
35027;DHT22;60696;51.426;6.934;2023-10-31T11:59:39;14.70;99.90
35027;DHT22;60696;51.426;6.934;2023-10-31T12:02:15;14.70;99.90
35027;DHT22;60696;51.426;6.934;2023-10-31T12:04:41;14.60;99.90
35027;DHT22;60696;51.426;6.934;2023-10-31T12:07:07;14.40;99.90
35027;DHT22;60696;51.426;6.934;2023-10-31T12:09:56;14.40;99.90
35027;DHT22;60696;51.426;6.934;2023-10-31T12:12:31;14.40;99.90
35027;DHT22;60696;51.426;6.934;2023-10-31T12:15:10;14.50;99.90
35027;DHT22;60696;51.426;6.934;2023-10-31T12:17:36;14.90;99.90
35027;DHT22;60696;51.426;6.934;2023-10-31T12:20:06;14.90;99.90
35027;DHT22;60696;51.426;6.934;2023-10-31T12:22:36;14.60;99.90
35027;DHT22;60696;51.426;6.934;2023-10-31T12:25:03;14.70;99.90
35027;DHT22;60696;51.426;6.934;2023-10-31T12:28:02;15.00;99.90
35027;DHT22;60696;51.426;6.934;2023-10-31T12:30:27;14.90;99.90
35027;DHT22;60696;51.426;6.934;2023-10-31T12:32:57;15.00;99.90
35027;DHT22;60696;51.426;6.934;2023-10-31T12:35:24;16.30;1.00
35027;DHT22;60696;51.426;6.934;2023-10-31T12:37:50;17.40;1.00
35027;DHT22;60696;51.426;6.934;2023-10-31T12:40:20;17.50;99.90
35027;DHT22;60696;51.426;6.934;2023-10-31T12:42:48;17.20;99.90
35027;DHT22;60696;51.426;6.934;2023-10-31T12:45:18;16.70;99.90
35027;DHT22;60696;51.426;6.934;2023-10-31T12:47:44;16.40;99.90
35027;DHT22;60696;51.426;6.934;2023-10-31T12:50:24;15.80;99.90
35027;DHT22;60696;51.426;6.934;2023-10-31T12:52:50;15.50;1.00
35027;DHT22;60696;51.426;6.934;2023-10-31T13:01:33;15.00;99.90
35027;DHT22;60696;51.426;6.934;2023-10-31T13:04:00;15.20;99.90
35027;DHT22;60696;51.426;6.934;2023-10-31T13:06:26;15.60;99.90
35027;DHT22;60696;51.426;6.934;2023-10-31T13:09:01;15.70;25.40
35027;DHT22;60696;51.426;6.934;2023-10-31T13:11:39;15.40;1.00
35027;DHT22;60696;51.426;6.934;2023-10-31T13:14:05;15.40;1.00
35027;DHT22;60696;51.426;6.934;2023-10-31T13:16:32;15.10;95.30
35027;DHT22;60696;51.426;6.934;2023-10-31T13:18:59;15.10;99.90
35027;DHT22;60696;51.426;6.934;2023-10-31T13:21:25;15.10;99.90
35027;DHT22;60696;51.426;6.934;2023-10-31T13:23:51;14.80;99.90
35027;DHT22;60696;51.426;6.934;2023-10-31T13:26:17;14.50;99.90
35027;DHT22;60696;51.426;6.934;2023-10-31T13:28:42;14.40;99.90
35027;DHT22;60696;51.426;6.934;2023-10-31T13:31:08;14.20;1.00
35027;DHT22;60696;51.426;6.934;2023-10-31T13:33:34;14.40;1.00
35027;DHT22;60696;51.426;6.934;2023-10-31T13:36:00;14.50;1.00
35027;DHT22;60696;51.426;6.934;2023-10-31T13:38:32;14.40;99.90
35027;DHT22;60696;51.426;6.934;2023-10-31T13:40:57;14.40;99.90
35027;DHT22;60696;51.426;6.934;2023-10-31T13:43:25;14.30;99.90
35027;DHT22;60696;51.426;6.934;2023-10-31T13:45:51;14.20;1.00
35027;DHT22;60696;51.426;6.934;2023-10-31T13:48:16;14.10;99.90
35027;DHT22;60696;51.426;6.934;2023-10-31T13:50:42;14.00;99.90
35027;DHT22;60696;51.426;6.934;2023-10-31T13:53:08;13.80;1.00
35027;DHT22;60696;51.426;6.934;2023-10-31T13:55:34;13.80;1.00
35027;DHT22;60696;51.426;6.934;2023-10-31T13:58:00;13.70;1.00
35027;DHT22;60696;51.426;6.934;2023-10-31T14:00:25;13.80;1.00
35027;DHT22;60696;51.426;6.934;2023-10-31T14:02:51;13.70;1.00
35027;DHT22;60696;51.426;6.934;2023-10-31T14:05:17;13.60;1.00
35027;DHT22;60696;51.426;6.934;2023-10-31T14:07:42;13.50;1.00
35027;DHT22;60696;51.426;6.934;2023-10-31T14:10:09;13.40;17.50
35027;DHT22;60696;51.426;6.934;2023-10-31T14:12:34;13.40;99.90
35027;DHT22;60696;51.426;6.934;2023-10-31T14:15:06;13.40;99.90
35027;DHT22;60696;51.426;6.934;2023-10-31T14:18:09;13.50;99.90
35027;DHT22;60696;51.426;6.934;2023-10-31T14:20:35;13.60;99.90
35027;DHT22;60696;51.426;6.934;2023-10-31T14:23:01;13.60;99.90
35027;DHT22;60696;51.426;6.934;2023-10-31T14:25:26;13.60;99.90
35027;DHT22;60696;51.426;6.934;2023-10-31T14:27:54;13.60;99.90
35027;DHT22;60696;51.426;6.934;2023-10-31T14:30:21;13.60;99.90
35027;DHT22;60696;51.426;6.934;2023-10-31T14:32:46;13.60;99.90
35027;DHT22;60696;51.426;6.934;2023-10-31T14:35:12;13.50;99.90
35027;DHT22;60696;51.426;6.934;2023-10-31T14:37:37;13.50;99.90
35027;DHT22;60696;51.426;6.934;2023-10-31T14:40:03;13.30;99.90
35027;DHT22;60696;51.426;6.934;2023-10-31T14:42:29;13.20;99.90
35027;DHT22;60696;51.426;6.934;2023-10-31T14:44:55;13.20;99.90
35027;DHT22;60696;51.426;6.934;2023-10-31T14:47:22;13.20;99.90
35027;DHT22;60696;51.426;6.934;2023-10-31T14:49:48;13.20;99.90
35027;DHT22;60696;51.426;6.934;2023-10-31T14:52:13;13.10;99.90
35027;DHT22;60696;51.426;6.934;2023-10-31T14:54:39;13.10;99.90
35027;DHT22;60696;51.426;6.934;2023-10-31T14:57:05;13.20;99.90
35027;DHT22;60696;51.426;6.934;2023-10-31T14:59:30;13.20;99.90
35027;DHT22;60696;51.426;6.934;2023-10-31T15:01:56;13.30;99.90
35027;DHT22;60696;51.426;6.934;2023-10-31T15:04:22;13.20;99.90
35027;DHT22;60696;51.426;6.934;2023-10-31T15:06:47;13.20;99.90
35027;DHT22;60696;51.426;6.934;2023-10-31T15:09:13;13.20;99.90
35027;DHT22;60696;51.426;6.934;2023-10-31T15:11:39;13.10;99.90
35027;DHT22;60696;51.426;6.934;2023-10-31T15:14:05;13.10;99.90
35027;DHT22;60696;51.426;6.934;2023-10-31T15:16:30;12.90;99.90
35027;DHT22;60696;51.426;6.934;2023-10-31T15:18:57;12.90;99.90
35027;DHT22;60696;51.426;6.934;2023-10-31T15:21:23;12.80;99.90
35027;DHT22;60696;51.426;6.934;2023-10-31T15:23:48;12.70;99.90
35027;DHT22;60696;51.426;6.934;2023-10-31T15:26:14;12.60;1.00
35027;DHT22;60696;51.426;6.934;2023-10-31T15:28:41;12.50;1.00
35027;DHT22;60696;51.426;6.934;2023-10-31T15:31:08;12.40;1.00
35027;DHT22;60696;51.426;6.934;2023-10-31T15:33:33;12.40;99.90
35027;DHT22;60696;51.426;6.934;2023-10-31T15:35:59;12.30;38.90
35027;DHT22;60696;51.426;6.934;2023-10-31T15:38:27;12.20;1.00
35027;DHT22;60696;51.426;6.934;2023-10-31T15:40:53;12.20;1.00
35027;DHT22;60696;51.426;6.934;2023-10-31T15:43:18;12.10;99.90
35027;DHT22;60696;51.426;6.934;2023-10-31T15:45:44;12.10;1.00
35027;DHT22;60696;51.426;6.934;2023-10-31T15:48:10;12.10;1.00
35027;DHT22;60696;51.426;6.934;2023-10-31T15:50:35;12.10;1.00
35027;DHT22;60696;51.426;6.934;2023-10-31T15:53:01;12.00;1.00
35027;DHT22;60696;51.426;6.934;2023-10-31T15:55:27;12.00;1.00
35027;DHT22;60696;51.426;6.934;2023-10-31T15:57:54;12.10;1.00
35027;DHT22;60696;51.426;6.934;2023-10-31T16:00:23;12.10;1.00
35027;DHT22;60696;51.426;6.934;2023-10-31T16:02:48;12.20;1.00
35027;DHT22;60696;51.426;6.934;2023-10-31T16:05:14;12.20;1.00
35027;DHT22;60696;51.426;6.934;2023-10-31T16:07:40;12.20;1.00
35027;DHT22;60696;51.426;6.934;2023-10-31T16:10:09;12.20;1.00
35027;DHT22;60696;51.426;6.934;2023-10-31T16:12:35;12.20;1.00
35027;DHT22;60696;51.426;6.934;2023-10-31T16:15:00;12.20;1.00
35027;DHT22;60696;51.426;6.934;2023-10-31T16:17:26;12.20;1.00
35027;DHT22;60696;51.426;6.934;2023-10-31T16:19:52;12.30;1.00
35027;DHT22;60696;51.426;6.934;2023-10-31T16:22:17;12.30;1.00
35027;DHT22;60696;51.426;6.934;2023-10-31T16:24:44;12.20;1.00
35027;DHT22;60696;51.426;6.934;2023-10-31T16:27:10;12.30;1.00
35027;DHT22;60696;51.426;6.934;2023-10-31T16:29:35;12.30;1.00
35027;DHT22;60696;51.426;6.934;2023-10-31T16:32:01;12.30;20.00
35027;DHT22;60696;51.426;6.934;2023-10-31T16:34:27;12.30;99.90
35027;DHT22;60696;51.426;6.934;2023-10-31T16:36:53;12.20;99.90
35027;DHT22;60696;51.426;6.934;2023-10-31T16:39:18;12.30;1.00
35027;DHT22;60696;51.426;6.934;2023-10-31T16:41:44;12.20;79.40
35027;DHT22;60696;51.426;6.934;2023-10-31T16:44:10;12.20;99.90
35027;DHT22;60696;51.426;6.934;2023-10-31T16:46:35;12.10;99.90
35027;DHT22;60696;51.426;6.934;2023-10-31T16:49:01;12.10;1.00
35027;DHT22;60696;51.426;6.934;2023-10-31T16:51:27;12.10;99.90
35027;DHT22;60696;51.426;6.934;2023-10-31T16:53:53;12.20;99.90
35027;DHT22;60696;51.426;6.934;2023-10-31T16:56:19;12.10;99.90
35027;DHT22;60696;51.426;6.934;2023-10-31T16:58:46;12.10;1.00
35027;DHT22;60696;51.426;6.934;2023-10-31T17:01:15;12.10;1.00
35027;DHT22;60696;51.426;6.934;2023-10-31T17:03:41;12.00;1.00
35027;DHT22;60696;51.426;6.934;2023-10-31T17:06:07;12.00;99.90
35027;DHT22;60696;51.426;6.934;2023-10-31T17:08:33;12.00;99.90
35027;DHT22;60696;51.426;6.934;2023-10-31T17:10:58;11.90;99.90
35027;DHT22;60696;51.426;6.934;2023-10-31T17:13:24;12.00;99.90
35027;DHT22;60696;51.426;6.934;2023-10-31T17:15:51;11.90;99.90
35027;DHT22;60696;51.426;6.934;2023-10-31T17:18:17;11.90;1.00
35027;DHT22;60696;51.426;6.934;2023-10-31T17:20:43;11.90;1.00
35027;DHT22;60696;51.426;6.934;2023-10-31T17:23:10;11.80;1.00
35027;DHT22;60696;51.426;6.934;2023-10-31T17:25:36;11.80;17.70
35027;DHT22;60696;51.426;6.934;2023-10-31T17:28:02;11.70;1.00
35027;DHT22;60696;51.426;6.934;2023-10-31T17:30:28;11.70;99.90
35027;DHT22;60696;51.426;6.934;2023-10-31T17:32:53;11.70;99.90
35027;DHT22;60696;51.426;6.934;2023-10-31T17:35:19;11.70;99.90
35027;DHT22;60696;51.426;6.934;2023-10-31T17:37:45;11.70;99.90
35027;DHT22;60696;51.426;6.934;2023-10-31T17:40:11;11.70;99.90
35027;DHT22;60696;51.426;6.934;2023-10-31T17:42:37;11.80;99.90
35027;DHT22;60696;51.426;6.934;2023-10-31T17:45:03;11.80;99.90
35027;DHT22;60696;51.426;6.934;2023-10-31T17:47:29;11.70;99.90
35027;DHT22;60696;51.426;6.934;2023-10-31T17:49:54;11.60;99.90
35027;DHT22;60696;51.426;6.934;2023-10-31T17:52:20;11.70;99.90
35027;DHT22;60696;51.426;6.934;2023-10-31T17:54:46;11.70;99.90
35027;DHT22;60696;51.426;6.934;2023-10-31T17:57:12;11.70;99.90
35027;DHT22;60696;51.426;6.934;2023-10-31T17:59:44;11.70;99.90
35027;DHT22;60696;51.426;6.934;2023-10-31T18:02:09;11.70;1.00
35027;DHT22;60696;51.426;6.934;2023-10-31T18:04:35;11.70;1.00
35027;DHT22;60696;51.426;6.934;2023-10-31T18:07:00;11.70;99.90
35027;DHT22;60696;51.426;6.934;2023-10-31T18:09:27;11.70;99.90
35027;DHT22;60696;51.426;6.934;2023-10-31T18:11:52;11.70;99.90
35027;DHT22;60696;51.426;6.934;2023-10-31T18:14:18;11.60;1.00
35027;DHT22;60696;51.426;6.934;2023-10-31T18:16:43;11.70;1.00
35027;DHT22;60696;51.426;6.934;2023-10-31T18:19:09;11.60;1.00
35027;DHT22;60696;51.426;6.934;2023-10-31T18:21:36;11.70;1.00
35027;DHT22;60696;51.426;6.934;2023-10-31T18:24:01;11.70;1.00
35027;DHT22;60696;51.426;6.934;2023-10-31T18:26:27;11.60;1.00
35027;DHT22;60696;51.426;6.934;2023-10-31T18:28:53;11.60;1.00
35027;DHT22;60696;51.426;6.934;2023-10-31T18:31:19;11.60;1.00
35027;DHT22;60696;51.426;6.934;2023-10-31T18:33:44;11.60;1.00
35027;DHT22;60696;51.426;6.934;2023-10-31T18:36:10;11.50;1.00
35027;DHT22;60696;51.426;6.934;2023-10-31T18:38:36;11.40;1.00
35027;DHT22;60696;51.426;6.934;2023-10-31T18:41:02;11.40;16.60
35027;DHT22;60696;51.426;6.934;2023-10-31T18:43:28;11.30;99.90
35027;DHT22;60696;51.426;6.934;2023-10-31T18:45:54;11.30;99.90
35027;DHT22;60696;51.426;6.934;2023-10-31T18:48:20;11.40;99.90
35027;DHT22;60696;51.426;6.934;2023-10-31T18:50:46;11.30;99.90
35027;DHT22;60696;51.426;6.934;2023-10-31T18:53:12;11.30;99.90
35027;DHT22;60696;51.426;6.934;2023-10-31T18:55:38;11.40;99.90
35027;DHT22;60696;51.426;6.934;2023-10-31T18:58:05;11.30;99.90
35027;DHT22;60696;51.426;6.934;2023-10-31T19:00:31;11.30;99.90
35027;DHT22;60696;51.426;6.934;2023-10-31T19:02:57;11.30;99.90
35027;DHT22;60696;51.426;6.934;2023-10-31T19:05:27;11.40;99.90
35027;DHT22;60696;51.426;6.934;2023-10-31T19:07:53;11.50;99.90
35027;DHT22;60696;51.426;6.934;2023-10-31T19:10:18;11.40;99.90
35027;DHT22;60696;51.426;6.934;2023-10-31T19:12:44;11.40;99.90
35027;DHT22;60696;51.426;6.934;2023-10-31T19:15:10;11.30;99.90
35027;DHT22;60696;51.426;6.934;2023-10-31T19:17:36;11.20;99.90
35027;DHT22;60696;51.426;6.934;2023-10-31T19:20:01;11.30;99.90
35027;DHT22;60696;51.426;6.934;2023-10-31T19:22:27;11.30;99.90
35027;DHT22;60696;51.426;6.934;2023-10-31T19:24:53;11.30;99.90
35027;DHT22;60696;51.426;6.934;2023-10-31T19:27:18;11.30;99.90
35027;DHT22;60696;51.426;6.934;2023-10-31T19:29:44;11.30;99.90
35027;DHT22;60696;51.426;6.934;2023-10-31T19:32:10;11.40;99.90
35027;DHT22;60696;51.426;6.934;2023-10-31T19:34:35;11.40;99.90
35027;DHT22;60696;51.426;6.934;2023-10-31T19:37:01;11.30;99.90
35027;DHT22;60696;51.426;6.934;2023-10-31T19:39:26;11.30;99.90
35027;DHT22;60696;51.426;6.934;2023-10-31T19:41:53;11.30;99.90
35027;DHT22;60696;51.426;6.934;2023-10-31T19:44:19;11.30;99.90
35027;DHT22;60696;51.426;6.934;2023-10-31T19:46:45;11.40;99.90
35027;DHT22;60696;51.426;6.934;2023-10-31T19:49:14;11.30;99.90
35027;DHT22;60696;51.426;6.934;2023-10-31T19:51:40;11.30;99.90
35027;DHT22;60696;51.426;6.934;2023-10-31T19:54:08;11.30;99.90
35027;DHT22;60696;51.426;6.934;2023-10-31T19:56:33;11.30;99.90
35027;DHT22;60696;51.426;6.934;2023-10-31T19:58:59;11.30;99.90
35027;DHT22;60696;51.426;6.934;2023-10-31T20:01:25;11.30;99.90
35027;DHT22;60696;51.426;6.934;2023-10-31T20:03:52;11.30;99.90
35027;DHT22;60696;51.426;6.934;2023-10-31T20:06:17;11.30;99.90
35027;DHT22;60696;51.426;6.934;2023-10-31T20:08:44;11.30;99.90
35027;DHT22;60696;51.426;6.934;2023-10-31T20:11:11;11.30;99.90
35027;DHT22;60696;51.426;6.934;2023-10-31T20:13:37;11.30;99.90
35027;DHT22;60696;51.426;6.934;2023-10-31T20:16:07;11.30;99.90
35027;DHT22;60696;51.426;6.934;2023-10-31T20:18:34;11.20;99.90
35027;DHT22;60696;51.426;6.934;2023-10-31T20:21:00;11.20;99.90
35027;DHT22;60696;51.426;6.934;2023-10-31T20:23:27;11.10;99.90
35027;DHT22;60696;51.426;6.934;2023-10-31T20:25:53;11.20;99.90
35027;DHT22;60696;51.426;6.934;2023-10-31T20:28:19;11.20;99.90
35027;DHT22;60696;51.426;6.934;2023-10-31T20:30:46;11.20;99.90
35027;DHT22;60696;51.426;6.934;2023-10-31T20:33:11;11.20;99.90
35027;DHT22;60696;51.426;6.934;2023-10-31T20:35:38;11.00;99.90
35027;DHT22;60696;51.426;6.934;2023-10-31T20:38:04;11.00;99.90
35027;DHT22;60696;51.426;6.934;2023-10-31T20:40:30;11.00;99.90
35027;DHT22;60696;51.426;6.934;2023-10-31T20:42:57;11.00;99.90
35027;DHT22;60696;51.426;6.934;2023-10-31T20:45:24;11.00;99.90